Time;durP1;ratioP1;P1;durP2;ratioP2;P2;SDS_P1;SDS_P2;PMS_P1;PMS_P2;Temp;Humidity;BMP_temperature;BMP_pressure;BME280_temperature;BME280_humidity;BME280_pressure;Samples;Min_cycle;Max_cycle;Signal;HPM_P1;HPM_P2
2022/07/21 00:01:31;;;;;;;12.00;10.35;;;21.30;80.60;;;;;;5009528;28;20053;-74
2022/07/21 00:03:57;;;;;;;15.25;10.82;;;21.30;80.70;;;;;;5009485;28;20466;-74
2022/07/21 00:06:23;;;;;;;12.23;10.52;;;21.20;80.60;;;;;;5009766;28;20033;-74
2022/07/21 00:08:48;;;;;;;12.07;10.60;;;21.10;80.90;;;;;;5012723;28;20026;-74
2022/07/21 00:11:14;;;;;;;10.65;9.55;;;21.10;81.00;;;;;;5012415;28;20680;-74
2022/07/21 00:13:40;;;;;;;11.70;9.07;;;21.10;81.20;;;;;;5017282;28;20022;-74
2022/07/21 00:16:05;;;;;;;11.35;9.00;;;21.10;81.20;;;;;;5026073;28;20033;-74
2022/07/21 00:18:31;;;;;;;12.93;9.82;;;21.10;81.00;;;;;;5015461;28;20458;-74
2022/07/21 00:20:58;;;;;;;11.93;9.40;;;21.00;80.00;;;;;;5012963;28;20516;-73
2022/07/21 00:23:24;;;;;;;11.18;8.73;;;21.00;80.10;;;;;;5012657;28;20033;-73
2022/07/21 00:25:51;;;;;;;11.25;9.30;;;20.80;79.90;;;;;;5012669;28;20053;-79
2022/07/21 00:28:17;;;;;;;12.52;10.27;;;20.70;80.60;;;;;;5012805;28;20363;-78
2022/07/21 00:30:42;;;;;;;12.23;10.20;;;20.60;81.40;;;;;;5012550;28;20034;-74
2022/07/21 00:33:08;;;;;;;14.45;10.95;;;20.50;82.30;;;;;;5012727;28;20030;-78
2022/07/21 00:35:34;;;;;;;12.57;10.07;;;20.50;82.60;;;;;;5012620;28;20026;-79
2022/07/21 00:37:59;;;;;;;15.50;11.38;;;20.40;82.90;;;;;;5012565;28;20105;-79
2022/07/21 00:40:25;;;;;;;14.20;11.10;;;20.30;83.20;;;;;;5012829;28;20022;-78
2022/07/21 00:42:51;;;;;;;11.40;10.20;;;20.30;83.30;;;;;;5012689;28;20034;-78
2022/07/21 00:45:16;;;;;;;12.20;10.85;;;20.30;83.60;;;;;;5011165;28;20025;-75
2022/07/21 00:47:42;;;;;;;11.40;9.82;;;20.30;83.80;;;;;;5012760;28;20029;-78
2022/07/21 00:50:18;;;;;;;15.73;9.98;;;20.50;83.40;;;;;;5017052;28;20101;-78
2022/07/21 00:52:44;;;;;;;9.77;8.48;;;20.60;83.90;;;;;;5012300;28;20032;-75
2022/07/21 00:55:18;;;;;;;10.32;9.10;;;20.70;82.60;;;;;;5012422;28;20097;-74
2022/07/21 00:57:45;;;;;;;9.18;8.10;;;20.70;82.20;;;;;;5011997;28;20049;-75
2022/07/21 01:00:15;;;;;;;10.57;7.88;;;20.70;81.60;;;;;;5012214;28;20022;-74
2022/07/21 01:02:42;;;;;;;10.45;8.02;;;20.80;81.40;;;;;;5012040;28;20059;-73
2022/07/21 01:05:12;;;;;;;9.80;8.45;;;20.80;81.30;;;;;;5012081;28;20398;-74
2022/07/21 01:07:39;;;;;;;12.55;8.57;;;20.80;81.00;;;;;;5012128;28;20033;-74
2022/07/21 01:10:06;;;;;;;9.38;8.45;;;20.90;80.80;;;;;;5012061;28;20473;-74
2022/07/21 01:12:31;;;;;;;11.38;9.00;;;20.70;81.30;;;;;;5011811;28;20486;-74
2022/07/21 01:14:57;;;;;;;11.80;10.05;;;20.80;81.30;;;;;;5010911;28;20037;-74
2022/07/21 01:17:23;;;;;;;12.00;9.27;;;20.80;81.70;;;;;;5011462;28;20473;-75
2022/07/21 01:19:49;;;;;;;13.90;10.70;;;20.80;81.40;;;;;;5011864;28;20366;-74
2022/07/21 01:22:15;;;;;;;11.57;9.73;;;20.80;81.60;;;;;;5011850;28;20037;-74
2022/07/21 01:24:40;;;;;;;11.05;9.43;;;20.80;82.40;;;;;;5011725;28;20094;-74
2022/07/21 01:27:06;;;;;;;11.48;8.13;;;20.90;82.80;;;;;;5011741;28;20038;-73
2022/07/21 01:29:31;;;;;;;9.32;7.93;;;21.00;82.40;;;;;;5011620;28;20018;-75
2022/07/21 01:31:57;;;;;;;16.17;9.10;;;20.90;82.30;;;;;;5010396;28;20022;-74
2022/07/21 01:34:22;;;;;;;10.30;8.60;;;21.00;82.50;;;;;;5011537;28;20053;-73
2022/07/21 01:36:48;;;;;;;9.60;7.85;;;20.90;82.50;;;;;;5011432;28;20030;-73
2022/07/21 01:41:58;;;;;;;9.60;7.65;;;20.90;82.80;;;;;;5011670;28;20075;-74
2022/07/21 01:44:24;;;;;;;9.05;8.15;;;20.90;82.60;;;;;;5011431;28;20097;-73
2022/07/21 01:46:51;;;;;;;8.65;7.72;;;20.90;82.40;;;;;;5011340;28;20034;-73
2022/07/21 01:49:18;;;;;;;9.13;7.72;;;20.90;82.50;;;;;;5009912;28;20026;-74
2022/07/21 01:51:45;;;;;;;9.43;7.10;;;20.90;82.70;;;;;;5011355;28;20026;-73
2022/07/21 01:54:11;;;;;;;10.07;8.15;;;20.90;82.90;;;;;;5009988;28;20018;-73
2022/07/21 01:56:38;;;;;;;9.30;7.10;;;20.90;83.20;;;;;;5010935;28;20082;-74
2022/07/21 01:59:04;;;;;;;10.20;6.95;;;20.90;83.70;;;;;;5011328;28;20538;-74
2022/07/21 02:01:31;;;;;;;9.10;7.72;;;20.90;82.60;;;;;;5011139;28;20070;-74
2022/07/21 02:03:59;;;;;;;8.90;7.63;;;20.90;82.60;;;;;;5011199;28;20053;-73
2022/07/21 02:06:26;;;;;;;9.15;7.60;;;20.90;82.70;;;;;;5010937;28;20476;-74
2022/07/21 02:08:52;;;;;;;12.63;8.63;;;20.90;82.50;;;;;;5010957;28;20474;-72
2022/07/21 02:11:18;;;;;;;9.20;7.55;;;20.90;82.20;;;;;;5011003;28;20082;-73
2022/07/21 02:13:44;;;;;;;9.55;8.55;;;21.00;82.10;;;;;;5011055;28;20026;-75
2022/07/21 02:16:11;;;;;;;9.02;7.68;;;21.00;81.90;;;;;;5011359;28;20045;-79
2022/07/21 02:18:36;;;;;;;10.90;8.27;;;21.00;82.10;;;;;;5011123;28;20026;-79
2022/07/21 02:21:02;;;;;;;10.60;8.50;;;20.90;82.10;;;;;;5011033;28;20029;-79
2022/07/21 02:23:35;;;;;;;11.05;8.30;;;20.90;82.30;;;;;;5011195;28;20045;-80
2022/07/21 02:26:01;;;;;;;8.30;7.50;;;20.90;82.30;;;;;;5010927;28;20026;-80
2022/07/21 02:28:27;;;;;;;8.45;7.38;;;20.90;82.50;;;;;;5010661;28;20033;-81
2022/07/21 02:30:54;;;;;;;8.88;7.97;;;20.90;82.50;;;;;;5010351;28;20029;-80
2022/07/21 02:33:19;;;;;;;9.45;7.07;;;20.80;82.40;;;;;;5010721;28;20030;-81
2022/07/21 02:35:45;;;;;;;8.90;7.80;;;20.90;82.40;;;;;;5010681;28;20022;-81
2022/07/21 02:38:11;;;;;;;7.90;7.07;;;20.90;82.80;;;;;;5010880;28;20110;-80
2022/07/21 02:40:38;;;;;;;8.23;7.43;;;21.00;82.30;;;;;;5010684;28;20050;-79
2022/07/21 02:43:05;;;;;;;10.75;7.82;;;20.90;82.00;;;;;;5010432;28;20033;-81
2022/07/21 02:45:31;;;;;;;9.48;7.68;;;20.90;82.20;;;;;;5010640;28;20024;-79
2022/07/21 02:48:11;;;;;;;9.05;7.07;;;20.90;82.30;;;;;;5009181;28;20034;-79
2022/07/21 02:50:40;;;;;;;11.40;9.20;;;20.90;82.50;;;;;;5010528;28;20094;-79
2022/07/21 02:53:12;;;;;;;11.88;8.30;;;20.90;83.80;;;;;;5010495;28;20444;-79
2022/07/21 02:55:38;;;;;;;9.98;7.70;;;20.80;83.10;;;;;;5010415;28;20175;-78
2022/07/21 02:58:09;;;;;;;8.10;7.28;;;20.80;83.10;;;;;;5010167;28;20058;-79
2022/07/21 03:00:38;;;;;;;11.75;9.10;;;20.80;82.80;;;;;;5010196;28;20064;-78
2022/07/21 03:03:04;;;;;;;8.52;7.60;;;20.80;82.70;;;;;;5010179;28;20062;-79
2022/07/21 03:05:30;;;;;;;11.00;8.35;;;20.80;82.90;;;;;;5010214;28;20063;-77
2022/07/21 03:07:55;;;;;;;12.10;8.70;;;20.80;83.00;;;;;;5010100;28;20018;-79
2022/07/21 03:10:21;;;;;;;10.32;8.75;;;20.70;83.10;;;;;;5010314;28;20026;-81
2022/07/21 03:12:47;;;;;;;11.63;9.38;;;20.80;83.00;;;;;;5009152;28;20067;-79
2022/07/21 03:15:12;;;;;;;10.57;8.88;;;20.70;83.40;;;;;;5009991;28;20026;-77
2022/07/21 03:17:38;;;;;;;12.07;10.32;;;20.80;84.00;;;;;;5009995;28;20041;-79
2022/07/21 03:20:04;;;;;;;11.38;9.32;;;20.90;83.50;;;;;;5010005;28;20128;-78
2022/07/21 03:22:30;;;;;;;14.13;10.45;;;20.90;83.50;;;;;;5009955;28;20053;-79
2022/07/21 03:24:55;;;;;;;11.88;9.23;;;20.70;83.90;;;;;;5009931;28;20470;-79
2022/07/21 03:27:21;;;;;;;8.98;8.10;;;20.80;83.70;;;;;;5009916;28;20026;-79
2022/07/21 03:29:46;;;;;;;10.43;8.35;;;20.80;83.20;;;;;;5008609;28;20038;-78
2022/07/21 03:32:12;;;;;;;9.73;8.27;;;20.90;82.50;;;;;;5009854;28;20030;-78
2022/07/21 03:34:37;;;;;;;16.67;10.35;;;21.00;82.20;;;;;;5009814;28;20187;-76
2022/07/21 03:37:03;;;;;;;10.05;9.05;;;21.00;81.90;;;;;;5009676;28;20042;-79
2022/07/21 03:39:29;;;;;;;9.85;8.82;;;20.90;82.30;;;;;;5009919;28;20026;-79
2022/07/21 03:41:54;;;;;;;11.65;9.07;;;21.00;82.20;;;;;;5012511;28;20030;-79
2022/07/21 03:44:20;;;;;;;12.45;10.38;;;21.00;82.50;;;;;;5013140;28;20030;-79
2022/07/21 03:46:45;;;;;;;10.00;8.23;;;21.00;82.40;;;;;;5011820;28;20030;-79
2022/07/21 03:49:12;;;;;;;11.20;8.85;;;21.00;82.70;;;;;;5013024;28;20022;-77
2022/07/21 03:51:37;;;;;;;10.82;9.40;;;21.00;83.10;;;;;;5013236;28;20546;-76
2022/07/21 03:54:03;;;;;;;9.98;8.93;;;21.00;83.10;;;;;;5013104;28;20034;-76
2022/07/21 03:56:29;;;;;;;12.20;10.02;;;21.10;83.10;;;;;;5013015;28;20065;-78
2022/07/21 03:58:55;;;;;;;11.40;10.30;;;21.10;83.30;;;;;;5011900;28;20071;-79
2022/07/21 04:01:20;;;;;;;11.02;9.93;;;21.00;83.10;;;;;;5012738;28;20382;-77
2022/07/21 04:03:46;;;;;;;10.65;9.38;;;21.00;83.20;;;;;;5012977;28;20096;-78
2022/07/21 04:06:11;;;;;;;12.10;8.55;;;21.00;83.50;;;;;;5012990;28;20023;-80
2022/07/21 04:08:37;;;;;;;11.50;9.63;;;21.00;83.40;;;;;;5012956;28;20498;-77
2022/07/21 04:11:03;;;;;;;10.13;8.63;;;21.00;83.40;;;;;;5012902;28;20029;-79
2022/07/21 04:13:29;;;;;;;12.43;9.27;;;21.00;83.30;;;;;;5031553;28;20078;-76
2022/07/21 04:15:54;;;;;;;10.55;9.23;;;21.10;83.40;;;;;;5036560;28;20014;-79
2022/07/21 04:18:20;;;;;;;16.88;11.32;;;21.00;82.90;;;;;;5014437;28;20493;-79
2022/07/21 04:20:46;;;;;;;11.15;10.05;;;21.00;83.20;;;;;;5013026;28;20110;-80
2022/07/21 04:23:11;;;;;;;14.32;10.13;;;21.00;83.10;;;;;;5012803;28;20471;-79
2022/07/21 04:25:38;;;;;;;14.13;11.15;;;21.00;82.90;;;;;;5012888;28;20018;-79
2022/07/21 04:28:05;;;;;;;15.75;11.57;;;21.00;83.10;;;;;;5012635;28;20018;-79
2022/07/21 04:30:31;;;;;;;13.95;11.52;;;21.00;82.70;;;;;;5012856;28;20163;-80
2022/07/21 04:32:57;;;;;;;14.75;11.63;;;21.00;82.40;;;;;;5012660;28;20022;-80
2022/07/21 04:35:23;;;;;;;13.18;9.82;;;20.90;82.60;;;;;;5012392;28;20067;-80
2022/07/21 04:37:49;;;;;;;12.38;10.70;;;20.90;82.70;;;;;;5012588;28;20033;-80
2022/07/21 04:40:15;;;;;;;13.43;11.38;;;20.90;83.00;;;;;;5012776;28;20030;-79
2022/07/21 04:42:42;;;;;;;11.20;10.00;;;20.90;82.50;;;;;;5012849;28;20455;-80
2022/07/21 04:45:09;;;;;;;15.07;10.73;;;20.80;82.90;;;;;;5016777;28;20117;-78
2022/07/21 04:47:45;;;;;;;11.80;10.15;;;20.90;83.00;;;;;;5012368;28;20109;-78
2022/07/21 04:50:11;;;;;;;15.30;12.50;;;21.00;82.80;;;;;;5012419;28;20063;-78
2022/07/21 04:52:37;;;;;;;12.60;10.85;;;21.00;82.70;;;;;;5011392;28;20072;-78
2022/07/21 04:55:03;;;;;;;10.98;9.82;;;21.00;82.70;;;;;;5012254;28;20430;-74
2022/07/21 04:57:28;;;;;;;11.77;10.15;;;21.10;82.40;;;;;;5012200;28;20057;-76
2022/07/21 04:59:54;;;;;;;11.15;9.98;;;21.20;81.90;;;;;;5011978;28;20022;-76
2022/07/21 05:02:20;;;;;;;10.77;9.73;;;21.30;81.50;;;;;;5012055;28;20087;-75
2022/07/21 05:04:45;;;;;;;14.55;10.80;;;21.30;81.10;;;;;;5011929;28;20030;-78
2022/07/21 05:07:11;;;;;;;13.27;10.98;;;21.40;80.50;;;;;;5011815;28;20029;-75
2022/07/21 05:09:36;;;;;;;11.93;10.07;;;21.50;80.10;;;;;;5012064;28;20026;-75
2022/07/21 05:12:02;;;;;;;13.13;10.27;;;21.50;80.00;;;;;;5011704;28;20072;-76
2022/07/21 05:14:28;;;;;;;15.00;11.52;;;21.50;79.60;;;;;;5012199;28;20026;-75
2022/07/21 05:16:53;;;;;;;12.70;11.35;;;21.50;79.20;;;;;;5011676;28;20038;-77
2022/07/21 05:19:19;;;;;;;14.02;11.20;;;21.60;78.80;;;;;;5011799;28;20037;-77
2022/07/21 05:21:46;;;;;;;12.43;10.35;;;21.30;77.70;;;;;;5011784;28;20026;-77
2022/07/21 05:24:11;;;;;;;16.73;11.05;;;21.40;77.60;;;;;;5011664;28;20022;-77
2022/07/21 05:26:37;;;;;;;13.38;10.00;;;21.40;78.10;;;;;;5011449;28;20034;-79
2022/07/21 05:29:03;;;;;;;10.32;9.30;;;21.50;78.60;;;;;;5011572;28;20014;-75
2022/07/21 05:31:28;;;;;;;12.35;10.80;;;21.60;78.60;;;;;;5011511;28;20032;-73
2022/07/21 05:33:54;;;;;;;14.00;12.00;;;21.70;78.70;;;;;;5011186;28;20351;-77
2022/07/21 05:36:20;;;;;;;12.68;9.73;;;21.80;78.50;;;;;;5011271;28;20048;-78
2022/07/21 05:38:46;;;;;;;13.00;10.55;;;22.00;78.10;;;;;;5011374;28;20037;-78
2022/07/21 05:41:11;;;;;;;11.18;9.40;;;22.10;77.50;;;;;;5011401;28;20117;-73
2022/07/21 05:43:37;;;;;;;10.35;9.23;;;22.20;77.00;;;;;;5011819;28;20061;-75
2022/07/21 05:46:03;;;;;;;14.18;11.18;;;22.40;76.10;;;;;;5011089;28;20041;-77
2022/07/21 05:48:28;;;;;;;11.27;10.07;;;22.50;74.90;;;;;;5011059;28;20435;-78
2022/07/21 05:50:54;;;;;;;13.07;10.77;;;22.50;74.80;;;;;;5011364;28;20034;-79
2022/07/21 05:53:19;;;;;;;13.70;10.85;;;22.60;74.30;;;;;;5011080;28;20359;-73
2022/07/21 05:55:45;;;;;;;13.05;9.90;;;22.70;73.50;;;;;;5010959;28;20109;-73
2022/07/21 05:58:11;;;;;;;13.38;10.55;;;22.50;73.40;;;;;;5011309;28;20105;-74
2022/07/21 06:00:37;;;;;;;12.55;9.68;;;22.50;73.40;;;;;;5011320;28;20026;-74
2022/07/21 06:03:03;;;;;;;11.77;8.88;;;22.50;73.80;;;;;;5011417;28;20033;-78
2022/07/21 06:05:29;;;;;;;13.27;11.05;;;22.60;73.90;;;;;;5010984;28;20018;-74
2022/07/21 06:07:54;;;;;;;13.77;10.00;;;22.60;72.20;;;;;;5011096;28;20026;-73
2022/07/21 06:10:20;;;;;;;15.75;10.43;;;22.50;73.00;;;;;;5011024;28;20030;-74
2022/07/21 06:12:45;;;;;;;10.45;8.95;;;22.60;69.90;;;;;;5010004;28;20435;-74
2022/07/21 06:15:12;;;;;;;14.05;10.50;;;22.60;68.90;;;;;;5009912;28;20032;-74
2022/07/21 06:17:40;;;;;;;14.30;8.98;;;22.50;67.80;;;;;;5010820;28;20132;-74
2022/07/21 06:20:08;;;;;;;11.50;9.20;;;22.60;68.80;;;;;;5010895;28;20018;-74
2022/07/21 06:22:33;;;;;;;14.30;9.88;;;22.70;67.20;;;;;;5010601;28;20033;-74
2022/07/21 06:24:59;;;;;;;13.40;9.32;;;22.70;66.40;;;;;;5010872;28;20398;-74
2022/07/21 06:27:24;;;;;;;10.82;9.27;;;22.70;65.30;;;;;;5010765;28;20106;-73
2022/07/21 06:29:50;;;;;;;13.32;9.85;;;22.60;66.40;;;;;;5009305;28;20022;-73
2022/07/21 06:32:16;;;;;;;12.57;9.02;;;22.50;67.70;;;;;;5010361;28;20109;-74
2022/07/21 06:34:41;;;;;;;12.65;9.13;;;22.30;67.30;;;;;;5010692;28;20030;-75
2022/07/21 06:37:07;;;;;;;8.65;7.43;;;22.50;66.10;;;;;;5010591;28;20037;-74
2022/07/21 06:39:32;;;;;;;15.52;10.55;;;22.60;66.80;;;;;;5010842;28;20055;-72
2022/07/21 06:41:58;;;;;;;14.07;9.95;;;22.60;68.50;;;;;;5010550;28;20106;-73
2022/07/21 06:44:24;;;;;;;12.82;10.63;;;22.50;69.20;;;;;;5010478;28;20033;-73
2022/07/21 06:46:50;;;;;;;11.93;9.18;;;22.40;69.60;;;;;;5010580;28;20037;-74
2022/07/21 06:49:16;;;;;;;10.43;9.25;;;22.50;69.90;;;;;;5010600;28;20019;-72
2022/07/21 06:51:42;;;;;;;12.77;10.50;;;22.40;69.50;;;;;;5010499;28;20053;-73
2022/07/21 06:54:07;;;;;;;11.63;9.95;;;22.30;69.20;;;;;;5010378;28;20026;-74
2022/07/21 06:56:33;;;;;;;13.38;8.98;;;22.30;67.60;;;;;;5010081;28;20086;-73
2022/07/21 06:58:58;;;;;;;13.18;8.90;;;22.20;68.00;;;;;;5010563;28;20496;-73
2022/07/21 07:01:24;;;;;;;11.02;9.60;;;22.30;68.00;;;;;;5010485;28;20509;-73
2022/07/21 07:03:49;;;;;;;13.00;8.55;;;22.40;67.60;;;;;;5010919;28;20030;-73
2022/07/21 07:06:15;;;;;;;11.68;9.02;;;22.50;67.60;;;;;;5014624;28;20025;-73
2022/07/21 07:08:41;;;;;;;12.65;9.35;;;22.70;67.70;;;;;;5010214;28;20022;-73
2022/07/21 07:11:06;;;;;;;12.25;9.25;;;22.80;67.90;;;;;;5010154;28;20030;-73
2022/07/21 07:13:32;;;;;;;10.77;9.35;;;22.60;68.00;;;;;;5010369;28;20034;-73
2022/07/21 07:15:58;;;;;;;11.40;8.82;;;22.80;67.70;;;;;;5009389;28;20160;-75
2022/07/21 07:18:24;;;;;;;11.73;9.02;;;23.00;67.00;;;;;;5009916;28;20037;-74
2022/07/21 07:20:51;;;;;;;11.13;9.20;;;23.20;65.80;;;;;;5010088;28;20022;-73
2022/07/21 07:23:16;;;;;;;15.55;10.38;;;23.40;63.30;;;;;;5010211;28;20409;-74
2022/07/21 07:25:42;;;;;;;12.70;8.73;;;23.30;61.60;;;;;;5010391;28;20041;-74
2022/07/21 07:28:08;;;;;;;15.77;10.77;;;23.00;62.40;;;;;;5010015;28;20037;-74
2022/07/21 07:30:35;;;;;;;22.70;13.20;;;22.70;63.60;;;;;;5010112;28;20054;-74
2022/07/21 07:33:00;;;;;;;17.00;12.18;;;22.70;63.40;;;;;;5010235;28;20101;-74
2022/07/21 07:35:26;;;;;;;16.00;10.45;;;22.70;63.60;;;;;;5010202;28;20087;-74
2022/07/21 07:37:52;;;;;;;13.90;10.15;;;22.60;64.20;;;;;;5017188;28;20061;-74
2022/07/21 07:40:19;;;;;;;17.95;11.93;;;22.70;65.00;;;;;;5018478;28;20022;-74
2022/07/21 07:42:46;;;;;;;13.13;9.23;;;22.70;64.30;;;;;;5010935;28;20065;-75
2022/07/21 07:45:12;;;;;;;10.32;8.43;;;22.90;63.00;;;;;;5010175;28;20018;-74
2022/07/21 07:47:38;;;;;;;10.52;8.70;;;23.20;62.30;;;;;;5009903;28;20073;-74
2022/07/21 07:50:06;;;;;;;15.40;10.05;;;23.40;62.20;;;;;;5009521;28;20135;-75
2022/07/21 07:52:32;;;;;;;13.40;8.77;;;23.60;61.00;;;;;;5007556;28;20022;-74
2022/07/21 07:54:57;;;;;;;9.98;8.40;;;23.70;60.70;;;;;;5008408;28;20026;-74
2022/07/21 07:57:23;;;;;;;13.55;9.82;;;23.80;61.20;;;;;;5008712;28;20518;-73
2022/07/21 07:59:48;;;;;;;14.07;11.52;;;23.90;60.40;;;;;;5008956;28;20025;-72
2022/07/21 08:02:14;;;;;;;13.65;9.45;;;23.90;59.40;;;;;;5009335;28;20034;-74
2022/07/21 08:04:41;;;;;;;12.40;9.35;;;24.00;59.40;;;;;;5009284;28;20386;-74
2022/07/21 08:07:07;;;;;;;13.18;9.38;;;23.90;59.60;;;;;;5008769;28;20018;-75
2022/07/21 08:09:33;;;;;;;10.55;8.77;;;24.10;59.70;;;;;;5009063;28;20024;-72
2022/07/21 08:11:58;;;;;;;13.63;8.95;;;24.40;58.30;;;;;;5007478;28;20045;-73
2022/07/21 08:14:24;;;;;;;15.85;10.50;;;24.80;57.90;;;;;;5009210;28;20018;-73
2022/07/21 08:16:49;;;;;;;12.93;9.82;;;24.80;57.70;;;;;;5009220;28;20030;-74
2022/07/21 08:19:15;;;;;;;12.02;9.80;;;24.70;58.00;;;;;;5009227;28;20081;-74
2022/07/21 08:21:41;;;;;;;13.40;9.10;;;24.40;58.90;;;;;;5007836;28;20029;-74
2022/07/21 08:24:08;;;;;;;13.68;9.20;;;24.50;59.00;;;;;;5009141;28;20034;-73
2022/07/21 08:26:33;;;;;;;12.90;9.55;;;24.50;59.10;;;;;;5009277;28;20105;-73
2022/07/21 08:28:59;;;;;;;15.80;8.50;;;24.20;60.20;;;;;;5011722;28;20085;-74
2022/07/21 08:31:25;;;;;;;11.30;9.90;;;24.00;61.40;;;;;;5012756;28;20074;-79
2022/07/21 08:33:52;;;;;;;16.10;9.15;;;23.60;62.30;;;;;;5012816;28;20049;-80
2022/07/21 08:36:17;;;;;;;13.18;9.50;;;23.50;62.60;;;;;;5012314;28;20064;-80
2022/07/21 08:38:43;;;;;;;10.10;9.00;;;23.40;62.90;;;;;;5012327;28;20088;-75
2022/07/21 08:41:09;;;;;;;13.15;9.18;;;23.50;63.10;;;;;;5012573;28;20033;-75
2022/07/21 08:43:35;;;;;;;13.57;9.18;;;23.70;62.10;;;;;;5012651;28;20030;-78
2022/07/21 08:46:01;;;;;;;15.38;8.95;;;23.80;61.00;;;;;;5012454;28;20059;-79
2022/07/21 08:48:29;;;;;;;11.88;9.40;;;24.00;61.00;;;;;;5012311;28;20038;-78
2022/07/21 08:50:55;;;;;;;12.13;9.07;;;24.00;60.20;;;;;;5012495;28;20093;-79
2022/07/21 08:53:21;;;;;;;11.65;9.10;;;23.90;61.40;;;;;;5012276;28;20026;-78
2022/07/21 08:55:46;;;;;;;12.65;9.55;;;24.00;61.60;;;;;;5012293;28;20040;-79
2022/07/21 08:58:13;;;;;;;11.95;9.63;;;23.90;61.60;;;;;;5010423;28;20045;-79
2022/07/21 09:00:41;;;;;;;12.55;9.23;;;23.60;61.40;;;;;;5011974;28;20053;-78
2022/07/21 09:03:14;;;;;;;12.98;9.95;;;23.50;61.40;;;;;;5010831;28;20731;-79
2022/07/21 09:05:41;;;;;;;15.10;9.15;;;23.40;61.60;;;;;;5012207;28;20026;-79
2022/07/21 09:08:07;;;;;;;11.35;8.63;;;23.60;58.90;;;;;;5012159;28;20022;-79
2022/07/21 09:10:34;;;;;;;14.98;10.07;;;23.90;58.90;;;;;;5011838;28;20076;-79
2022/07/21 09:13:02;;;;;;;11.90;9.50;;;23.90;57.90;;;;;;5011724;28;20022;-77
2022/07/21 09:15:29;;;;;;;19.05;9.68;;;23.90;58.40;;;;;;5012123;28;20096;-78
2022/07/21 09:18:04;;;;;;;14.43;8.90;;;23.90;57.20;;;;;;5011902;28;20070;-78
2022/07/21 09:20:30;;;;;;;13.88;8.48;;;24.00;57.50;;;;;;5012156;28;20022;-77
2022/07/21 09:23:05;;;;;;;11.60;8.35;;;23.90;57.20;;;;;;5011966;28;20056;-78
2022/07/21 09:25:51;;;;;;;13.95;8.25;;;23.90;57.60;;;;;;5011946;28;20033;-78
2022/07/21 09:28:19;;;;;;;11.63;7.38;;;23.80;56.50;;;;;;5012003;28;20022;-76
2022/07/21 09:30:54;;;;;;;9.15;7.60;;;23.80;56.80;;;;;;5011920;28;20034;-77
2022/07/21 09:33:26;;;;;;;11.00;7.63;;;24.00;56.80;;;;;;5011537;28;20083;-78
2022/07/21 09:36:00;;;;;;;9.85;7.20;;;24.20;56.70;;;;;;5011689;28;20022;-75
2022/07/21 09:38:27;;;;;;;11.05;7.60;;;24.50;54.60;;;;;;5011173;28;20034;-79
2022/07/21 09:40:53;;;;;;;10.93;7.75;;;24.70;54.10;;;;;;5011714;28;20026;-78
2022/07/21 09:43:29;;;;;;;8.25;7.03;;;24.80;51.70;;;;;;5012570;28;20038;-78
2022/07/21 09:45:55;;;;;;;11.40;7.10;;;25.00;51.70;;;;;;5013468;28;20018;-75
2022/07/21 09:48:36;;;;;;;9.63;6.68;;;25.30;51.70;;;;;;5030149;28;20058;-76
2022/07/21 09:51:43;;;;;;;9.07;7.30;;;25.40;50.00;;;;;;5033387;28;20101;-78
2022/07/21 09:54:11;;;;;;;8.70;6.57;;;24.70;51.90;;;;;;5071784;28;20102;-79
2022/07/21 09:56:40;;;;;;;8.82;6.93;;;24.60;52.10;;;;;;5055018;28;20056;-78
2022/07/21 09:59:07;;;;;;;10.48;6.70;;;24.70;51.90;;;;;;5040620;28;20030;-79
2022/07/21 10:01:35;;;;;;;9.65;6.82;;;24.60;51.40;;;;;;5011068;28;20033;-79
2022/07/21 10:04:01;;;;;;;10.35;6.03;;;24.70;52.00;;;;;;5011130;28;20025;-78
2022/07/21 10:06:31;;;;;;;7.78;6.07;;;24.90;52.70;;;;;;5011095;28;20030;-79
2022/07/21 10:08:58;;;;;;;10.00;7.20;;;25.10;50.10;;;;;;5010814;28;20026;-79
2022/07/21 10:11:26;;;;;;;9.00;6.78;;;25.20;50.00;;;;;;5010985;28;20374;-78
2022/07/21 10:13:51;;;;;;;7.60;5.72;;;25.30;49.60;;;;;;5010907;28;20474;-79
2022/07/21 10:16:17;;;;;;;9.05;5.75;;;25.40;48.30;;;;;;5011063;28;20077;-79
2022/07/21 10:19:04;;;;;;;9.57;6.25;;;25.50;48.70;;;;;;5010825;28;20030;-79
2022/07/21 10:22:08;;;;;;;6.72;5.65;;;25.60;47.50;;;;;;5010976;28;20075;-79
2022/07/21 10:24:34;;;;;;;7.28;4.72;;;26.00;46.40;;;;;;5010865;28;20463;-75
2022/07/21 10:27:09;;;;;;;9.43;5.72;;;26.20;45.00;;;;;;5010804;28;20032;-79
2022/07/21 10:29:48;;;;;;;7.28;5.13;;;26.20;44.40;;;;;;5010607;28;20424;-81
2022/07/21 10:32:18;;;;;;;7.07;5.47;;;26.00;44.90;;;;;;5010906;28;20022;-78
2022/07/21 10:34:44;;;;;;;9.60;6.60;;;25.90;45.10;;;;;;5010882;28;20050;-77
2022/07/21 10:37:30;;;;;;;7.47;6.13;;;26.00;45.10;;;;;;5013292;28;20109;-74
2022/07/21 10:39:56;;;;;;;8.32;5.53;;;25.50;46.10;;;;;;5011387;28;20029;-75
2022/07/21 10:42:21;;;;;;;9.88;5.47;;;25.20;46.70;;;;;;5010683;28;20083;-74
2022/07/21 10:44:47;;;;;;;9.98;5.50;;;25.20;47.20;;;;;;5010747;28;20030;-74
2022/07/21 10:47:21;;;;;;;7.25;4.70;;;25.20;47.30;;;;;;5010645;28;20029;-74
2022/07/21 10:49:56;;;;;;;12.82;7.65;;;25.30;45.90;;;;;;5009987;28;20034;-75
2022/07/21 10:52:45;;;;;;;7.45;4.28;;;25.60;47.20;;;;;;5010460;28;20022;-75
2022/07/21 10:55:10;;;;;;;5.57;4.53;;;25.60;44.80;;;;;;5010128;28;20175;-75
2022/07/21 10:57:38;;;;;;;5.55;4.20;;;25.90;45.50;;;;;;5009982;28;20125;-72
2022/07/21 11:00:17;;;;;;;4.60;4.05;;;26.10;42.30;;;;;;5010622;28;20025;-72
2022/07/21 11:02:45;;;;;;;5.97;4.18;;;26.50;41.70;;;;;;5010880;28;20427;-83
2022/07/21 11:05:11;;;;;;;7.05;4.38;;;26.70;40.80;;;;;;5011559;28;20109;-89
2022/07/21 11:08:11;;;;;;;5.63;4.35;;;27.00;42.10;;;;;;5011569;28;20061;-78
2022/07/21 11:10:39;;;;;;;8.52;4.15;;;27.20;40.10;;;;;;5010717;28;20102;-74
2022/07/21 11:13:05;;;;;;;6.35;4.15;;;27.00;41.30;;;;;;5010936;28;20025;-74
2022/07/21 11:15:55;;;;;;;4.93;4.32;;;26.90;41.10;;;;;;5010564;28;20075;-74
2022/07/21 11:18:23;;;;;;;10.30;4.32;;;27.10;41.80;;;;;;5010362;28;20113;-74
2022/07/21 11:21:21;;;;;;;7.80;4.22;;;27.50;41.00;;;;;;5010540;28;20022;-74
2022/07/21 11:23:49;;;;;;;4.35;3.92;;;27.80;38.10;;;;;;5043536;28;20038;-75
2022/07/21 11:26:17;;;;;;;6.13;3.80;;;28.10;39.20;;;;;;5009704;28;20419;-74
2022/07/21 11:28:44;;;;;;;5.55;4.10;;;28.10;37.50;;;;;;5010048;28;20026;-74
2022/07/21 11:31:15;;;;;;;7.00;4.30;;;28.20;38.10;;;;;;5010043;28;20029;-75
2022/07/21 11:33:44;;;;;;;4.28;3.70;;;28.20;37.60;;;;;;5010316;28;20045;-74
2022/07/21 11:36:21;;;;;;;7.70;4.13;;;27.70;37.80;;;;;;5009869;28;20037;-74
2022/07/21 11:39:05;;;;;;;6.10;4.22;;;27.80;37.50;;;;;;5010211;28;20036;-74
2022/07/21 11:41:30;;;;;;;5.22;3.88;;;27.90;37.20;;;;;;5010065;28;20018;-74
2022/07/21 11:43:56;;;;;;;6.03;3.95;;;27.10;38.40;;;;;;5010160;28;20116;-74
2022/07/21 11:46:22;;;;;;;6.43;3.88;;;27.00;40.00;;;;;;5010258;28;20049;-76
2022/07/21 11:48:48;;;;;;;4.13;3.33;;;27.30;38.40;;;;;;5009943;28;20022;-74
2022/07/21 11:51:13;;;;;;;4.43;3.55;;;27.70;35.90;;;;;;5010100;28;20033;-74
2022/07/21 11:53:45;;;;;;;6.88;3.83;;;27.70;36.40;;;;;;5010162;28;20123;-75
2022/07/21 11:56:16;;;;;;;5.60;4.18;;;27.80;36.70;;;;;;5009965;28;20122;-74
2022/07/21 11:58:43;;;;;;;5.28;3.50;;;27.40;37.10;;;;;;5008694;28;20363;-72
2022/07/21 12:01:09;;;;;;;5.82;3.97;;;27.80;38.00;;;;;;5009984;28;20026;-73
2022/07/21 12:03:47;;;;;;;3.95;3.35;;;28.40;36.40;;;;;;5013266;28;20505;-74
2022/07/21 12:06:13;;;;;;;4.78;3.30;;;28.80;36.00;;;;;;5013075;28;20060;-74
2022/07/21 12:08:39;;;;;;;5.00;3.15;;;29.30;36.00;;;;;;5012604;28;20022;-74
2022/07/21 12:11:07;;;;;;;4.07;3.42;;;29.60;33.50;;;;;;5012768;28;20502;-74
2022/07/21 12:13:58;;;;;;;4.72;3.28;;;29.90;33.10;;;;;;5012942;28;20055;-75
2022/07/21 12:16:24;;;;;;;7.45;4.35;;;29.60;33.10;;;;;;5013143;28;20064;-74
2022/07/21 12:19:09;;;;;;;8.15;4.30;;;29.00;33.60;;;;;;5013074;28;20026;-74
2022/07/21 12:21:44;;;;;;;6.03;3.60;;;28.80;33.40;;;;;;5013188;28;20022;-73
2022/07/21 12:24:10;;;;;;;5.40;3.92;;;28.50;35.10;;;;;;5011285;28;20117;-73
2022/07/21 12:26:36;;;;;;;4.43;3.80;;;28.50;34.20;;;;;;5011408;28;20061;-74
2022/07/21 12:29:01;;;;;;;4.93;3.55;;;27.90;34.70;;;;;;5012986;28;20022;-73
2022/07/21 12:31:27;;;;;;;4.53;3.28;;;28.20;35.70;;;;;;5013023;28;20033;-73
2022/07/21 12:33:58;;;;;;;5.68;3.75;;;28.50;34.80;;;;;;5013118;28;20018;-73
2022/07/21 12:36:25;;;;;;;3.90;3.22;;;28.30;34.60;;;;;;5013146;28;20030;-73
2022/07/21 12:38:51;;;;;;;4.03;3.40;;;28.60;34.20;;;;;;5013056;28;20083;-74
2022/07/21 12:41:21;;;;;;;5.35;3.75;;;28.70;34.50;;;;;;5012793;28;20026;-74
2022/07/21 12:44:00;;;;;;;5.68;3.30;;;28.70;34.30;;;;;;5013049;28;20053;-74